Time;durP1;ratioP1;P1;durP2;ratioP2;P2;SDS_P1;SDS_P2;PMS_P1;PMS_P2;Temp;Humidity;BMP_temperature;BMP_pressure;BME280_temperature;BME280_humidity;BME280_pressure;Samples;Min_cycle;Max_cycle;Signal;HPM_P1;HPM_P2
2023/03/14 00:00:22;;;;;;;24.43;3.90;;;9.20;99.90;;;;;;5018657;28;20063;-72
2023/03/14 00:03:00;;;;;;;19.50;3.38;;;9.20;99.90;;;;;;5028279;28;20142;-72
2023/03/14 00:05:25;;;;;;;23.95;3.78;;;9.20;99.90;;;;;;5041764;28;20041;-71
2023/03/14 00:07:51;;;;;;;19.73;4.33;;;9.20;99.90;;;;;;4989961;28;20044;-71
2023/03/14 00:10:19;;;;;;;26.53;4.63;;;9.10;99.90;;;;;;5017910;28;20037;-71
2023/03/14 00:12:45;;;;;;;26.90;3.75;;;9.10;99.90;;;;;;5034673;28;20367;-71
2023/03/14 00:15:11;;;;;;;23.50;3.87;;;9.10;99.90;;;;;;5017359;28;20518;-72
2023/03/14 00:17:44;;;;;;;23.40;3.97;;;9.10;99.90;;;;;;5037580;28;20114;-72
2023/03/14 00:20:11;;;;;;;20.40;3.85;;;9.00;99.90;;;;;;5021507;28;20107;-72
2023/03/14 00:22:40;;;;;;;21.98;3.38;;;9.00;99.90;;;;;;5033904;28;20041;-72
2023/03/14 00:25:08;;;;;;;21.23;4.13;;;8.90;99.90;;;;;;5041171;28;20106;-72
2023/03/14 00:27:34;;;;;;;26.50;4.75;;;8.80;99.90;;;;;;5040307;28;20041;-72
2023/03/14 00:30:04;;;;;;;19.13;3.45;;;8.80;99.90;;;;;;5035341;28;20032;-72
2023/03/14 00:32:30;;;;;;;16.13;3.67;;;8.70;99.90;;;;;;5018709;28;20144;-72
2023/03/14 00:34:56;;;;;;;20.23;3.90;;;8.60;99.90;;;;;;5037379;28;20038;-72
2023/03/14 00:37:25;;;;;;;18.63;3.72;;;8.50;99.90;;;;;;5032561;28;20037;-72
2023/03/14 00:39:51;;;;;;;21.47;3.50;;;8.40;99.90;;;;;;4991901;28;20044;-72
2023/03/14 00:42:17;;;;;;;19.13;3.35;;;8.40;99.90;;;;;;5024330;28;20040;-72
2023/03/14 00:44:43;;;;;;;21.60;3.03;;;8.30;99.90;;;;;;5033091;28;20033;-72
2023/03/14 00:47:09;;;;;;;18.40;3.97;;;8.20;99.90;;;;;;4997285;28;20129;-72
2023/03/14 00:49:37;;;;;;;22.02;3.78;;;8.20;99.90;;;;;;5024155;28;20069;-71
2023/03/14 00:52:10;;;;;;;15.15;3.00;;;8.10;99.90;;;;;;5002718;28;20520;-71
2023/03/14 00:54:47;;;;;;;17.92;3.45;;;8.10;99.90;;;;;;5032144;28;20075;-71
2023/03/14 00:57:12;;;;;;;25.17;4.68;;;8.10;99.90;;;;;;5016330;28;20107;-72
2023/03/14 00:59:45;;;;;;;15.32;3.38;;;8.10;99.90;;;;;;5017445;28;20110;-71
2023/03/14 01:02:10;;;;;;;20.10;4.32;;;8.10;99.90;;;;;;5000749;28;20045;-72
2023/03/14 01:04:39;;;;;;;20.63;3.87;;;8.10;99.90;;;;;;4997720;28;20048;-71
2023/03/14 01:07:11;;;;;;;22.30;4.13;;;8.20;99.90;;;;;;5009290;28;20072;-72
2023/03/14 01:09:36;;;;;;;20.50;3.85;;;8.30;99.90;;;;;;5016664;28;20038;-72
2023/03/14 01:12:02;;;;;;;24.20;3.67;;;8.30;99.90;;;;;;5008438;28;20041;-72
2023/03/14 01:14:28;;;;;;;16.90;2.77;;;8.40;99.90;;;;;;5021389;28;20033;-72
2023/03/14 01:16:54;;;;;;;18.13;3.40;;;8.40;99.90;;;;;;5016358;28;20441;-72
2023/03/14 01:19:19;;;;;;;20.00;3.33;;;8.50;99.90;;;;;;5016835;28;20030;-72
2023/03/14 01:21:45;;;;;;;17.57;3.73;;;8.50;99.90;;;;;;4984500;28;20045;-72
2023/03/14 01:24:13;;;;;;;19.03;2.90;;;8.60;99.90;;;;;;4986468;28;20052;-72
2023/03/14 01:26:39;;;;;;;17.63;2.95;;;8.70;99.90;;;;;;5016633;28;20488;-72
2023/03/14 01:29:05;;;;;;;15.68;2.65;;;8.80;99.90;;;;;;5033262;28;20127;-72
2023/03/14 01:31:31;;;;;;;18.90;2.40;;;8.90;99.90;;;;;;5013718;28;20125;-72
2023/03/14 01:33:57;;;;;;;20.83;3.25;;;8.90;99.90;;;;;;5015094;28;20408;-71
2023/03/14 01:36:23;;;;;;;20.70;3.13;;;8.90;99.90;;;;;;5017221;28;20034;-71
2023/03/14 01:38:49;;;;;;;20.07;2.53;;;9.00;99.90;;;;;;5014552;28;20041;-71
2023/03/14 01:41:19;;;;;;;16.40;2.87;;;9.00;99.90;;;;;;4995684;28;20530;-72
2023/03/14 01:43:45;;;;;;;19.33;3.03;;;9.00;99.90;;;;;;5018561;28;20308;-72
2023/03/14 01:46:36;;;;;;;17.17;2.95;;;9.00;99.90;;;;;;5010666;28;20049;-72
2023/03/14 01:49:22;;;;;;;24.95;3.47;;;9.00;99.90;;;;;;5021861;28;20183;-72
2023/03/14 01:51:53;;;;;;;20.17;3.20;;;9.00;99.90;;;;;;5019782;28;20057;-71
2023/03/14 01:54:34;;;;;;;21.45;3.10;;;8.90;99.90;;;;;;5023007;28;20045;-71
2023/03/14 01:57:14;;;;;;;18.77;2.67;;;8.80;99.90;;;;;;5012296;28;20402;-71
2023/03/14 01:59:42;;;;;;;21.00;2.38;;;8.70;99.90;;;;;;5028266;28;20363;-72
2023/03/14 02:02:11;;;;;;;19.33;2.50;;;8.70;99.90;;;;;;5015618;28;20037;-71
2023/03/14 02:04:39;;;;;;;16.25;2.05;;;8.60;99.90;;;;;;5034351;28;20071;-71
2023/03/14 02:07:08;;;;;;;18.63;2.55;;;8.60;99.90;;;;;;5014271;28;20091;-71
2023/03/14 02:09:34;;;;;;;19.52;2.95;;;8.60;99.90;;;;;;5047708;28;20127;-72
2023/03/14 02:12:01;;;;;;;31.73;3.55;;;8.50;99.90;;;;;;4999923;28;20061;-72
2023/03/14 02:14:34;;;;;;;19.27;2.65;;;8.50;99.90;;;;;;5027793;28;20048;-72
2023/03/14 02:17:03;;;;;;;16.98;2.40;;;8.40;99.90;;;;;;4998666;28;20041;-72
2023/03/14 02:19:37;;;;;;;19.23;2.78;;;8.40;99.90;;;;;;5016683;28;20041;-72
2023/03/14 02:22:11;;;;;;;19.35;2.83;;;8.40;99.90;;;;;;5030757;28;20102;-72
2023/03/14 02:24:50;;;;;;;17.17;2.30;;;8.50;99.90;;;;;;5009799;28;20136;-72
2023/03/14 02:27:18;;;;;;;15.70;2.15;;;8.50;99.90;;;;;;5017899;28;20141;-72
2023/03/14 02:30:05;;;;;;;16.48;2.47;;;8.50;99.90;;;;;;5017316;28;20048;-74
2023/03/14 02:32:34;;;;;;;26.10;2.72;;;8.50;99.90;;;;;;5016144;28;20053;-74
2023/03/14 02:35:06;;;;;;;13.35;2.47;;;8.50;99.90;;;;;;5030465;28;20042;-75
2023/03/14 02:37:38;;;;;;;21.65;3.35;;;8.40;99.90;;;;;;5016372;28;20463;-74
2023/03/14 02:40:05;;;;;;;16.02;2.65;;;8.40;99.90;;;;;;5015443;28;20029;-72
2023/03/14 02:42:36;;;;;;;23.75;3.05;;;8.40;99.90;;;;;;5016848;28;20102;-72
2023/03/14 02:45:08;;;;;;;17.23;2.90;;;8.40;99.90;;;;;;5015716;28;20041;-72
2023/03/14 02:47:35;;;;;;;26.10;3.08;;;8.30;99.90;;;;;;5039563;28;20045;-72
2023/03/14 02:50:10;;;;;;;18.75;3.15;;;8.30;99.90;;;;;;5048506;28;20053;-72
2023/03/14 02:52:36;;;;;;;21.70;2.83;;;8.30;99.90;;;;;;5016337;28;20044;-72
2023/03/14 02:55:06;;;;;;;30.20;4.05;;;8.30;99.90;;;;;;5028149;28;20073;-72
2023/03/14 02:57:33;;;;;;;20.33;3.30;;;8.20;99.90;;;;;;5024718;28;20124;-72
2023/03/14 03:00:00;;;;;;;30.33;3.38;;;8.20;99.90;;;;;;5035121;28;20045;-72
2023/03/14 03:02:29;;;;;;;27.50;3.90;;;8.20;99.90;;;;;;5043992;28;20048;-72
2023/03/14 03:04:54;;;;;;;27.52;4.38;;;8.30;99.90;;;;;;5017294;28;20040;-72
2023/03/14 03:07:20;;;;;;;30.80;3.93;;;8.30;99.90;;;;;;5002624;28;20037;-72
2023/03/14 03:09:46;;;;;;;35.07;5.00;;;8.30;99.90;;;;;;4999638;28;20398;-72
2023/03/14 03:12:12;;;;;;;26.40;4.53;;;8.30;99.90;;;;;;5016696;28;20326;-72
2023/03/14 03:14:38;;;;;;;24.57;4.17;;;8.30;99.90;;;;;;5002291;28;20394;-72
2023/03/14 03:17:07;;;;;;;22.57;3.93;;;8.30;99.90;;;;;;5020249;28;20041;-72
2023/03/14 03:19:38;;;;;;;32.30;4.28;;;8.40;99.90;;;;;;5034035;28;20077;-72
2023/03/14 03:22:04;;;;;;;25.57;4.23;;;8.40;99.90;;;;;;5015936;28;20041;-72
2023/03/14 03:24:31;;;;;;;29.97;3.80;;;8.40;99.90;;;;;;5036045;28;20150;-72
2023/03/14 03:27:00;;;;;;;24.88;3.97;;;8.40;99.90;;;;;;5036836;28;20041;-72
2023/03/14 03:29:25;;;;;;;24.27;4.03;;;8.40;99.90;;;;;;5008221;28;20107;-72
2023/03/14 03:31:51;;;;;;;24.17;4.97;;;8.40;99.90;;;;;;5003838;28;20037;-72
2023/03/14 03:34:17;;;;;;;28.43;4.00;;;8.40;99.90;;;;;;5019950;28;20071;-72
2023/03/14 03:36:43;;;;;;;30.83;5.57;;;8.40;99.90;;;;;;4999494;28;20037;-72
2023/03/14 03:39:08;;;;;;;30.37;4.57;;;8.40;99.90;;;;;;5024907;28;20037;-72
2023/03/14 03:41:34;;;;;;;32.33;5.97;;;8.40;99.90;;;;;;5001106;28;20140;-72
2023/03/14 03:44:00;;;;;;;30.57;4.53;;;8.40;99.90;;;;;;5020784;28;20053;-72
2023/03/14 03:46:26;;;;;;;29.60;4.07;;;8.40;99.90;;;;;;5016899;28;20041;-72
2023/03/14 03:48:56;;;;;;;31.10;4.03;;;8.40;99.90;;;;;;5019000;28;20045;-72
2023/03/14 03:51:23;;;;;;;35.40;4.10;;;8.40;99.90;;;;;;5021219;28;20053;-72
2023/03/14 03:53:49;;;;;;;33.05;5.70;;;8.40;99.90;;;;;;5004643;28;20103;-72
2023/03/14 03:56:16;;;;;;;32.43;5.63;;;8.40;99.90;;;;;;5014455;28;20029;-72
2023/03/14 03:58:49;;;;;;;32.45;4.10;;;8.40;99.90;;;;;;5019478;28;20057;-72
2023/03/14 04:01:15;;;;;;;25.20;4.00;;;8.40;99.90;;;;;;5011240;28;20040;-72
2023/03/14 04:03:41;;;;;;;28.80;4.15;;;8.40;99.90;;;;;;5010249;28;20075;-72
2023/03/14 04:06:10;;;;;;;22.10;3.70;;;8.40;99.90;;;;;;5041682;28;20053;-72
2023/03/14 04:08:38;;;;;;;29.58;4.88;;;8.40;99.90;;;;;;5039453;28;20041;-72
2023/03/14 04:11:05;;;;;;;25.73;4.13;;;8.40;99.90;;;;;;5044024;28;20045;-72
2023/03/14 04:13:33;;;;;;;22.25;3.97;;;8.40;99.90;;;;;;5038062;28;20037;-72
2023/03/14 04:15:59;;;;;;;23.20;3.47;;;8.40;99.90;;;;;;5034760;28;20064;-72
2023/03/14 04:18:25;;;;;;;22.87;4.00;;;8.50;99.90;;;;;;5020511;28;20251;-72
2023/03/14 04:20:55;;;;;;;27.15;4.03;;;8.50;99.90;;;;;;5038401;28;20545;-72
2023/03/14 04:23:24;;;;;;;22.20;3.65;;;8.50;99.90;;;;;;5044936;28;20116;-73
2023/03/14 04:25:52;;;;;;;25.45;4.20;;;8.50;99.90;;;;;;5040823;28;20041;-72
2023/03/14 04:28:19;;;;;;;20.10;3.35;;;8.50;99.90;;;;;;5039623;28;20041;-73
2023/03/14 04:30:52;;;;;;;28.70;4.88;;;8.50;99.90;;;;;;5038397;28;20037;-72
2023/03/14 04:33:18;;;;;;;21.45;3.75;;;8.50;99.90;;;;;;5042301;28;20041;-72
2023/03/14 04:35:47;;;;;;;24.83;3.47;;;8.50;99.90;;;;;;5019485;28;20103;-72
2023/03/14 04:38:14;;;;;;;20.10;4.47;;;8.50;99.90;;;;;;5038147;28;20037;-72
2023/03/14 04:40:41;;;;;;;20.90;3.60;;;8.40;99.90;;;;;;5036463;28;20128;-72
2023/03/14 04:43:09;;;;;;;29.52;5.57;;;8.40;99.90;;;;;;5038482;28;20429;-72
2023/03/14 04:45:35;;;;;;;24.55;4.10;;;8.30;99.90;;;;;;5047528;28;20068;-72
2023/03/14 04:48:01;;;;;;;30.23;5.17;;;8.20;99.90;;;;;;5036594;28;20045;-72
2023/03/14 04:50:27;;;;;;;26.23;4.67;;;8.20;99.90;;;;;;4999381;28;20085;-71
2023/03/14 04:52:52;;;;;;;28.83;4.33;;;8.20;99.90;;;;;;5015268;28;20798;-71
2023/03/14 04:55:18;;;;;;;23.10;4.57;;;8.10;99.90;;;;;;5030391;28;20033;-71
2023/03/14 04:57:44;;;;;;;20.43;4.60;;;8.10;99.90;;;;;;5029196;28;20069;-71
2023/03/14 05:00:11;;;;;;;18.77;4.33;;;8.10;99.90;;;;;;5019283;28;20041;-70
2023/03/14 05:02:37;;;;;;;20.88;4.88;;;8.00;99.90;;;;;;5027785;28;20041;-71
2023/03/14 05:05:04;;;;;;;20.27;4.50;;;8.00;99.90;;;;;;5002391;28;20604;-70
2023/03/14 05:07:29;;;;;;;21.27;4.38;;;8.00;99.90;;;;;;5032894;28;20045;-70
2023/03/14 05:09:55;;;;;;;24.47;3.97;;;8.00;99.90;;;;;;4980200;28;20052;-70
2023/03/14 05:12:21;;;;;;;20.47;4.57;;;8.00;99.90;;;;;;5012034;28;20041;-70
2023/03/14 05:14:47;;;;;;;24.10;4.20;;;8.00;99.90;;;;;;5029108;28;20084;-70
2023/03/14 05:17:14;;;;;;;19.63;4.13;;;8.00;99.90;;;;;;5029881;28;20115;-70
2023/03/14 05:19:40;;;;;;;18.00;4.15;;;8.00;99.90;;;;;;5028332;28;20048;-70
2023/03/14 05:22:07;;;;;;;16.13;3.70;;;8.00;99.90;;;;;;4996419;28;20045;-70
2023/03/14 05:24:33;;;;;;;16.70;4.05;;;8.00;99.90;;;;;;5019159;28;20046;-70
2023/03/14 05:26:59;;;;;;;18.48;4.32;;;8.00;99.90;;;;;;5016209;28;20712;-70
2023/03/14 05:29:24;;;;;;;20.57;4.03;;;8.00;99.90;;;;;;4995914;28;20045;-70
2023/03/14 05:31:50;;;;;;;14.20;4.30;;;8.10;99.90;;;;;;5026187;28;20045;-70
2023/03/14 05:34:16;;;;;;;16.67;4.17;;;8.10;99.90;;;;;;5031204;28;20430;-70
2023/03/14 05:36:41;;;;;;;14.70;3.67;;;8.10;99.90;;;;;;5028097;28;20095;-70
2023/03/14 05:39:07;;;;;;;16.17;4.43;;;8.10;99.90;;;;;;5022628;28;20113;-70
2023/03/14 05:41:33;;;;;;;20.17;4.50;;;8.00;99.90;;;;;;5027666;28;20105;-70
2023/03/14 05:43:59;;;;;;;15.47;4.63;;;8.00;99.90;;;;;;5019500;28;20056;-70
2023/03/14 05:46:24;;;;;;;16.33;4.37;;;8.00;99.90;;;;;;5005361;28;20408;-70
2023/03/14 05:48:50;;;;;;;13.67;3.97;;;8.00;99.90;;;;;;5009087;28;20042;-70
2023/03/14 05:51:16;;;;;;;14.10;3.80;;;8.00;99.90;;;;;;5024958;28;20057;-70
2023/03/14 05:53:42;;;;;;;12.83;4.13;;;8.00;99.90;;;;;;5022276;28;20110;-70
2023/03/14 05:56:08;;;;;;;13.70;3.50;;;8.00;99.90;;;;;;5019155;28;20040;-70
2023/03/14 05:58:34;;;;;;;11.55;2.72;;;7.90;99.90;;;;;;5008020;28;20034;-70
2023/03/14 06:01:04;;;;;;;9.43;1.67;;;7.80;99.90;;;;;;4991740;28;20564;-70
2023/03/14 06:03:29;;;;;;;7.78;1.45;;;7.80;99.90;;;;;;5024251;28;20055;-70
2023/03/14 06:05:55;;;;;;;7.33;0.80;;;7.60;99.90;;;;;;5027716;28;20041;-70
2023/03/14 06:08:21;;;;;;;11.13;1.27;;;7.40;99.90;;;;;;5039640;28;20048;-70
2023/03/14 06:10:47;;;;;;;6.87;1.10;;;7.30;99.90;;;;;;5027626;28;20042;-70
2023/03/14 06:13:12;;;;;;;4.53;0.90;;;7.10;99.90;;;;;;5027092;28;20528;-70
2023/03/14 06:15:38;;;;;;;8.60;0.97;;;7.00;99.90;;;;;;4993526;28;20033;-70
2023/03/14 06:18:04;;;;;;;12.23;0.70;;;6.80;99.90;;;;;;5016004;28;20188;-70
2023/03/14 06:20:29;;;;;;;15.77;1.13;;;6.60;99.90;;;;;;5026797;28;20041;-70
2023/03/14 06:22:55;;;;;;;19.83;2.13;;;6.30;99.90;;;;;;5015420;28;20049;-70
2023/03/14 06:25:21;;;;;;;15.80;1.80;;;6.20;99.90;;;;;;5021114;28;20041;-70
2023/03/14 06:27:49;;;;;;;17.87;1.60;;;6.00;99.90;;;;;;5027277;28;20120;-70
2023/03/14 06:30:15;;;;;;;15.93;1.63;;;5.80;99.90;;;;;;5011843;28;20052;-70
2023/03/14 06:32:41;;;;;;;11.50;1.02;;;5.60;99.90;;;;;;5013513;28;20073;-70
2023/03/14 06:35:07;;;;;;;12.93;0.90;;;5.40;99.90;;;;;;5021986;28;20401;-70
2023/03/14 06:37:32;;;;;;;14.95;0.63;;;5.20;99.90;;;;;;4994939;28;20037;-70
2023/03/14 06:39:58;;;;;;;13.73;1.23;;;5.00;99.90;;;;;;5027647;28;20068;-70
2023/03/14 06:42:24;;;;;;;14.27;0.70;;;4.90;99.90;;;;;;5011173;28;20057;-70
2023/03/14 06:44:49;;;;;;;16.63;1.20;;;4.80;99.90;;;;;;5030098;28;20656;-70
2023/03/14 06:47:15;;;;;;;16.20;0.70;;;4.60;99.90;;;;;;5013878;28;20164;-70
2023/03/14 06:49:41;;;;;;;9.23;1.17;;;4.50;99.90;;;;;;4979997;28;20064;-70
2023/03/14 06:52:07;;;;;;;6.10;0.60;;;4.50;99.90;;;;;;4998741;28;20048;-70
2023/03/14 06:54:32;;;;;;;5.87;1.20;;;4.30;99.90;;;;;;5015755;28;20037;-69
2023/03/14 06:56:58;;;;;;;11.43;1.40;;;4.30;99.90;;;;;;5031554;28;20103;-70
2023/03/14 06:59:24;;;;;;;8.20;0.40;;;4.30;99.90;;;;;;4990757;28;20068;-70
2023/03/14 07:01:50;;;;;;;10.30;0.70;;;4.20;99.90;;;;;;5021586;28;20120;-70
2023/03/14 07:04:16;;;;;;;11.30;1.10;;;4.20;99.90;;;;;;5004240;28;20055;-70
2023/03/14 07:06:44;;;;;;;7.97;0.82;;;4.10;99.90;;;;;;5025606;28;20043;-70
2023/03/14 07:09:13;;;;;;;5.80;0.50;;;4.10;99.90;;;;;;5039012;28;20052;-70
2023/03/14 07:11:39;;;;;;;4.82;0.50;;;4.10;99.90;;;;;;5014840;28;20126;-70
2023/03/14 07:14:05;;;;;;;6.30;0.40;;;4.10;99.90;;;;;;5014818;28;20168;-70
2023/03/14 07:16:32;;;;;;;5.70;0.40;;;4.10;99.90;;;;;;5030487;28;20033;-70
2023/03/14 07:18:59;;;;;;;8.35;0.85;;;4.10;99.90;;;;;;5027742;28;20763;-70
2023/03/14 07:21:25;;;;;;;2.17;0.65;;;4.10;99.90;;;;;;5031904;28;20107;-70
2023/03/14 07:23:51;;;;;;;6.80;0.40;;;4.10;99.90;;;;;;5014892;28;20053;-70
2023/03/14 07:26:16;;;;;;;4.27;0.70;;;4.10;99.90;;;;;;5015111;28;20128;-70
2023/03/14 07:28:42;;;;;;;9.37;0.50;;;4.10;99.90;;;;;;4998762;28;20041;-70
2023/03/14 07:31:08;;;;;;;5.67;0.60;;;4.10;99.90;;;;;;5031218;28;20048;-70
2023/03/14 07:33:34;;;;;;;4.80;0.60;;;4.10;99.90;;;;;;5015181;28;20072;-69
2023/03/14 07:36:00;;;;;;;5.85;0.63;;;4.20;99.90;;;;;;5030861;28;20504;-69
2023/03/14 07:38:26;;;;;;;7.72;0.80;;;4.10;99.90;;;;;;5031803;28;20041;-70
2023/03/14 07:40:59;;;;;;;5.87;0.60;;;4.20;99.90;;;;;;5033828;28;20037;-70
2023/03/14 07:43:24;;;;;;;8.60;0.70;;;4.20;99.90;;;;;;5032780;28;20042;-70
2023/03/14 07:45:50;;;;;;;8.57;1.00;;;4.30;99.90;;;;;;5010086;28;20243;-70
2023/03/14 07:48:16;;;;;;;11.70;1.03;;;4.30;99.90;;;;;;4987271;28;20557;-70
2023/03/14 07:50:42;;;;;;;8.35;0.98;;;4.30;99.90;;;;;;5002317;28;20037;-70
2023/03/14 07:53:08;;;;;;;8.60;1.77;;;4.40;99.90;;;;;;5026425;28;20045;-70
2023/03/14 07:55:34;;;;;;;9.83;1.10;;;4.40;99.90;;;;;;5034354;28;20083;-70
2023/03/14 07:57:59;;;;;;;14.33;1.70;;;4.50;99.90;;;;;;5037084;28;20041;-69
2023/03/14 08:00:25;;;;;;;13.40;1.60;;;4.50;99.90;;;;;;5000633;28;20047;-69
2023/03/14 08:02:51;;;;;;;11.80;1.33;;;4.50;99.90;;;;;;5008503;28;20041;-70
2023/03/14 08:05:17;;;;;;;12.37;2.10;;;4.60;99.90;;;;;;5044792;28;20035;-70
2023/03/14 08:07:42;;;;;;;9.80;1.43;;;4.60;99.90;;;;;;5023085;28;20048;-70
2023/03/14 08:10:09;;;;;;;12.27;1.43;;;4.70;99.90;;;;;;5009667;28;20440;-70
2023/03/14 08:12:35;;;;;;;10.27;1.23;;;4.80;99.90;;;;;;5039487;28;20037;-70
2023/03/14 08:15:01;;;;;;;13.30;1.40;;;4.80;99.90;;;;;;5034178;28;20046;-70
2023/03/14 08:17:27;;;;;;;16.27;2.00;;;4.80;99.90;;;;;;5024322;28;20473;-70
2023/03/14 08:19:52;;;;;;;13.83;1.57;;;4.80;99.90;;;;;;4999292;28;20099;-70
2023/03/14 08:22:18;;;;;;;14.30;1.67;;;4.80;99.90;;;;;;4995821;28;20038;-70
2023/03/14 08:24:44;;;;;;;10.87;1.23;;;4.80;99.90;;;;;;5029143;28;20045;-70
2023/03/14 08:27:09;;;;;;;16.13;1.83;;;4.80;99.90;;;;;;5001647;28;20041;-70
2023/03/14 08:29:35;;;;;;;13.50;1.70;;;4.80;99.90;;;;;;5038656;28;20048;-70
2023/03/14 08:32:01;;;;;;;15.00;2.30;;;4.90;99.90;;;;;;5016624;28;20052;-70
2023/03/14 08:34:27;;;;;;;12.83;1.90;;;4.90;99.90;;;;;;5030743;28;20041;-70
2023/03/14 08:36:52;;;;;;;14.80;2.07;;;5.10;99.90;;;;;;5033761;28;20394;-71
2023/03/14 08:39:18;;;;;;;16.13;2.17;;;5.20;99.90;;;;;;5022384;28;20448;-72
2023/03/14 08:41:44;;;;;;;17.80;2.63;;;5.30;99.90;;;;;;5008984;28;20045;-72
2023/03/14 08:44:13;;;;;;;23.50;1.63;;;5.40;99.90;;;;;;5042088;28;20060;-71
2023/03/14 08:46:39;;;;;;;15.15;1.92;;;5.50;99.90;;;;;;5032905;28;20045;-72
2023/03/14 08:49:05;;;;;;;17.67;1.70;;;5.70;99.90;;;;;;5033058;28;20071;-72
2023/03/14 08:51:31;;;;;;;17.50;2.47;;;5.70;99.90;;;;;;5018439;28;20804;-71
2023/03/14 08:53:57;;;;;;;11.60;2.07;;;5.80;99.90;;;;;;5034564;28;20076;-72
2023/03/14 08:56:22;;;;;;;16.57;2.40;;;5.80;99.90;;;;;;5010785;28;20064;-72
2023/03/14 08:58:48;;;;;;;12.87;2.13;;;5.90;99.90;;;;;;5017712;28;20053;-72
2023/03/14 09:01:14;;;;;;;18.77;2.70;;;5.80;99.90;;;;;;5043428;28;20140;-72
2023/03/14 09:03:43;;;;;;;19.88;2.75;;;5.80;99.90;;;;;;5015754;28;20034;-72
2023/03/14 09:06:10;;;;;;;21.17;3.63;;;5.70;99.90;;;;;;5015908;28;20037;-72
2023/03/14 09:08:36;;;;;;;29.08;3.55;;;5.70;99.90;;;;;;5040334;28;20055;-71
2023/03/14 09:11:02;;;;;;;21.65;3.00;;;5.50;99.90;;;;;;5018922;28;20080;-72
2023/03/14 09:13:28;;;;;;;23.33;3.47;;;5.30;99.90;;;;;;5021706;28;20072;-71
2023/03/14 09:15:55;;;;;;;10.83;1.50;;;5.20;99.90;;;;;;5038357;28;20072;-72
2023/03/14 09:18:22;;;;;;;17.55;2.47;;;5.20;99.90;;;;;;5039208;28;20279;-72
2023/03/14 09:20:48;;;;;;;16.35;2.00;;;5.10;99.90;;;;;;5020080;28;20064;-72
2023/03/14 09:23:14;;;;;;;20.05;2.17;;;5.20;99.90;;;;;;5038981;28;20068;-72
2023/03/14 09:25:40;;;;;;;17.52;2.88;;;5.20;99.90;;;;;;5026858;28;20049;-72
2023/03/14 09:28:06;;;;;;;23.23;2.93;;;5.30;99.90;;;;;;5013673;28;20425;-72
2023/03/14 09:30:32;;;;;;;25.00;2.87;;;5.40;99.90;;;;;;5017956;28;20064;-72
2023/03/14 09:32:58;;;;;;;18.27;2.38;;;5.40;99.90;;;;;;5035118;28;20046;-72
2023/03/14 09:35:25;;;;;;;15.23;2.45;;;5.40;99.90;;;;;;5039496;28;20064;-72
2023/03/14 09:37:51;;;;;;;21.73;3.17;;;5.40;99.90;;;;;;5039520;28;20448;-72
2023/03/14 09:40:19;;;;;;;23.27;3.25;;;5.40;99.90;;;;;;5007124;28;20098;-72
2023/03/14 09:42:52;;;;;;;16.42;3.05;;;5.40;99.90;;;;;;5024271;28;20056;-72
2023/03/14 09:45:28;;;;;;;10.82;1.60;;;5.50;99.90;;;;;;5033631;28;20037;-72
2023/03/14 09:47:55;;;;;;;21.00;2.45;;;5.60;99.90;;;;;;5018834;28;20092;-72
2023/03/14 09:50:21;;;;;;;20.60;3.45;;;5.60;99.90;;;;;;5030467;28;20045;-72
2023/03/14 09:52:52;;;;;;;13.37;2.07;;;5.70;99.90;;;;;;5007812;28;20072;-72
2023/03/14 09:55:22;;;;;;;16.10;2.40;;;5.80;99.90;;;;;;5013265;28;20138;-72
2023/03/14 09:57:54;;;;;;;17.20;2.38;;;5.80;99.90;;;;;;5028746;28;20041;-72
2023/03/14 10:00:27;;;;;;;17.23;2.58;;;5.80;99.90;;;;;;5031689;28;20045;-72
2023/03/14 10:03:13;;;;;;;20.60;2.53;;;5.80;99.90;;;;;;5029560;28;20129;-72
2023/03/14 10:05:41;;;;;;;24.13;2.42;;;5.80;99.90;;;;;;5022126;28;20045;-72
2023/03/14 10:08:10;;;;;;;14.80;2.28;;;5.70;99.90;;;;;;5036868;28;20041;-72
2023/03/14 10:10:36;;;;;;;14.57;1.65;;;5.70;99.90;;;;;;5032270;28;20055;-72
2023/03/14 10:13:25;;;;;;;21.83;2.07;;;5.70;99.90;;;;;;5025338;28;20037;-72
2023/03/14 10:15:52;;;;;;;10.88;1.83;;;5.70;99.90;;;;;;5038149;28;20053;-72
2023/03/14 10:18:19;;;;;;;17.23;1.70;;;5.80;99.90;;;;;;5030421;28;20037;-72
2023/03/14 10:20:47;;;;;;;11.13;1.35;;;5.90;99.90;;;;;;5031162;28;20039;-72
2023/03/14 10:23:13;;;;;;;11.27;1.10;;;5.90;99.90;;;;;;5022527;28;20037;-72
2023/03/14 10:25:42;;;;;;;10.13;1.30;;;5.90;99.90;;;;;;5032222;28;20045;-72
2023/03/14 10:28:25;;;;;;;11.35;1.80;;;5.90;99.90;;;;;;5030083;28;20048;-72
2023/03/14 10:30:51;;;;;;;11.88;1.60;;;5.80;99.90;;;;;;5020981;28;20029;-72
2023/03/14 10:33:26;;;;;;;10.03;2.17;;;5.80;99.90;;;;;;5000259;28;20033;-72
2023/03/14 10:35:56;;;;;;;;;;;5.60;99.90;;;;;;5024922;28;20537;-72
2023/03/14 10:38:26;;;;;;;10.30;1.33;;;5.60;99.90;;;;;;5032075;28;20352;-72
2023/03/14 10:40:53;;;;;;;10.32;0.82;;;5.70;99.90;;;;;;5033970;28;20095;-72
2023/03/14 10:43:26;;;;;;;8.93;0.75;;;5.90;99.90;;;;;;5017235;28;20069;-72
2023/03/14 10:46:09;;;;;;;9.73;1.10;;;6.10;99.90;;;;;;5033372;28;20060;-72
2023/03/14 10:48:38;;;;;;;10.73;2.08;;;6.30;99.90;;;;;;5027963;28;20120;-72
2023/03/14 10:51:10;;;;;;;12.65;1.15;;;6.60;99.90;;;;;;5044043;28;20057;-72
2023/03/14 10:53:46;;;;;;;11.30;1.23;;;6.70;99.90;;;;;;5026459;28;20148;-72
2023/03/14 10:56:14;;;;;;;15.15;1.50;;;6.60;99.90;;;;;;5019282;28;20117;-72
2023/03/14 10:58:43;;;;;;;11.07;1.30;;;6.30;99.90;;;;;;5015901;28;20103;-72
2023/03/14 11:01:15;;;;;;;7.40;1.50;;;6.10;99.50;;;;;;5025953;28;20056;-72
2023/03/14 11:03:48;;;;;;;11.73;1.10;;;6.10;99.60;;;;;;5034309;28;20041;-72
2023/03/14 11:06:30;;;;;;;15.20;1.88;;;6.10;99.90;;;;;;5013614;28;20110;-72
2023/03/14 11:09:07;;;;;;;7.57;0.95;;;6.00;93.40;;;;;;5016672;28;20420;-72
2023/03/14 11:11:33;;;;;;;6.57;1.23;;;6.00;96.80;;;;;;5032470;28;20077;-73
2023/03/14 11:14:29;;;;;;;5.40;0.43;;;6.00;93.90;;;;;;5030632;28;20044;-73
2023/03/14 11:17:13;;;;;;;;;;;6.10;83.50;;;;;;5032980;28;20033;-73
2023/03/14 11:19:44;;;;;;;3.70;0.70;;;6.30;85.40;;;;;;5034810;28;19916;-73
2023/03/14 11:22:09;;;;;;;8.35;0.80;;;6.40;93.70;;;;;;5034805;28;20505;-73
2023/03/14 11:25:06;;;;;;;6.90;0.80;;;6.50;83.30;;;;;;5044226;28;20041;-73
2023/03/14 11:27:50;;;;;;;;;;;6.60;80.30;;;;;;5044914;28;20454;-73
2023/03/14 11:30:23;;;;;;;7.70;0.80;;;6.70;74.30;;;;;;5040993;28;20019;-73
2023/03/14 11:33:01;;;;;;;10.15;0.85;;;6.70;79.20;;;;;;5027585;28;20124;-73
2023/03/14 11:35:36;;;;;;;6.50;0.73;;;6.60;73.60;;;;;;5044584;28;20045;-73
2023/03/14 11:38:14;;;;;;;6.80;0.85;;;6.40;75.70;;;;;;5047587;28;20056;-73
2023/03/14 11:40:41;;;;;;;8.55;0.90;;;6.40;82.80;;;;;;5024008;28;20117;-73
2023/03/14 11:43:26;;;;;;;6.38;0.80;;;6.50;81.20;;;;;;5021937;28;20076;-73
2023/03/14 11:45:56;;;;;;;10.82;1.10;;;6.70;75.20;;;;;;5027659;28;20543;-73
2023/03/14 11:48:48;;;;;;;14.32;1.10;;;6.90;73.00;;;;;;5038748;28;20099;-73
2023/03/14 11:51:28;;;;;;;9.73;1.08;;;7.00;77.90;;;;;;5038143;28;20089;-73
2023/03/14 11:54:17;;;;;;;4.13;0.90;;;6.90;79.20;;;;;;5019479;28;20111;-73
2023/03/14 11:57:04;;;;;;;8.35;1.58;;;6.80;77.10;;;;;;5041014;28;20150;-73
2023/03/14 11:59:50;;;;;;;9.43;0.82;;;6.70;77.80;;;;;;5033982;28;20045;-73
2023/03/14 12:02:15;;;;;;;;;;;6.90;77.30;;;;;;5031531;28;20045;-73
2023/03/14 12:04:53;;;;;;;10.73;1.23;;;7.00;76.00;;;;;;5045906;28;20005;-73
2023/03/14 12:07:47;;;;;;;10.88;1.50;;;7.20;82.70;;;;;;5054430;28;20044;-73
2023/03/14 12:10:14;;;;;;;11.10;1.15;;;7.20;80.40;;;;;;5021711;28;20523;-73
2023/03/14 12:12:47;;;;;;;8.05;1.08;;;7.10;76.20;;;;;;5026731;28;20064;-73
2023/03/14 12:15:21;;;;;;;8.38;1.50;;;6.90;70.00;;;;;;5005731;28;20049;-73
2023/03/14 12:17:54;;;;;;;4.78;0.80;;;6.90;81.80;;;;;;5038236;28;20056;-73
2023/03/14 12:20:22;;;;;;;7.30;1.23;;;7.00;84.60;;;;;;5021693;28;20042;-73
2023/03/14 12:23:11;;;;;;;7.28;1.23;;;7.00;75.00;;;;;;5007993;28;20071;-73
2023/03/14 12:25:43;;;;;;;6.95;1.10;;;7.00;71.90;;;;;;5040705;28;20041;-73
2023/03/14 12:28:21;;;;;;;9.67;1.33;;;7.00;75.20;;;;;;5022110;28;20129;-74
2023/03/14 12:30:47;;;;;;;4.53;0.88;;;6.80;67.20;;;;;;5022179;28;20374;-73
2023/03/14 12:33:20;;;;;;;8.87;1.43;;;6.80;68.90;;;;;;5036395;28;20099;-74
2023/03/14 12:35:49;;;;;;;8.02;1.20;;;6.70;64.30;;;;;;5033957;28;20482;-74
2023/03/14 12:38:36;;;;;;;5.07;0.65;;;6.80;63.30;;;;;;5039868;28;20029;-74
2023/03/14 12:41:19;;;;;;;6.68;0.52;;;6.70;60.50;;;;;;5043479;28;20087;-74
2023/03/14 12:43:47;;;;;;;5.72;1.00;;;6.80;60.30;;;;;;5034505;28;20037;-74
2023/03/14 12:46:20;;;;;;;6.50;0.65;;;6.80;61.70;;;;;;5005562;28;20113;-74
2023/03/14 12:48:54;;;;;;;7.95;1.42;;;6.80;67.00;;;;;;5048180;28;20052;-73
2023/03/14 12:51:47;;;;;;;7.18;1.30;;;7.00;66.20;;;;;;5038362;28;20045;-73
2023/03/14 12:54:21;;;;;;;5.75;0.75;;;7.10;63.00;;;;;;5025714;28;20073;-74
2023/03/14 12:57:34;;;;;;;8.23;1.15;;;7.20;64.00;;;;;;5026504;28;20044;-74
2023/03/14 13:00:07;;;;;;;6.13;0.63;;;7.20;62.30;;;;;;5036612;28;20056;-73